sensor_id;sensor_type;location;lat;lon;timestamp;P1;durP1;ratioP1;P2;durP2;ratioP2
21245;SDS011;10781;50.928;4.440;2023-03-31T00:00:43;10.27;;;2.75;;
21245;SDS011;10781;50.928;4.440;2023-03-31T00:03:11;11.73;;;2.78;;
21245;SDS011;10781;50.928;4.440;2023-03-31T00:05:37;12.35;;;2.92;;
21245;SDS011;10781;50.928;4.440;2023-03-31T00:08:03;18.88;;;3.53;;
21245;SDS011;10781;50.928;4.440;2023-03-31T00:10:30;10.45;;;2.35;;
21245;SDS011;10781;50.928;4.440;2023-03-31T00:12:58;10.18;;;2.40;;
21245;SDS011;10781;50.928;4.440;2023-03-31T00:15:25;10.07;;;2.47;;
21245;SDS011;10781;50.928;4.440;2023-03-31T00:17:51;11.23;;;2.90;;
21245;SDS011;10781;50.928;4.440;2023-03-31T00:20:17;13.40;;;2.50;;
21245;SDS011;10781;50.928;4.440;2023-03-31T00:22:43;17.92;;;2.70;;
21245;SDS011;10781;50.928;4.440;2023-03-31T00:25:14;8.95;;;2.45;;
21245;SDS011;10781;50.928;4.440;2023-03-31T00:27:41;13.60;;;2.67;;
21245;SDS011;10781;50.928;4.440;2023-03-31T00:30:08;11.23;;;2.53;;
21245;SDS011;10781;50.928;4.440;2023-03-31T00:32:35;13.18;;;2.70;;
21245;SDS011;10781;50.928;4.440;2023-03-31T00:35:01;13.30;;;2.55;;
21245;SDS011;10781;50.928;4.440;2023-03-31T00:37:27;14.40;;;2.63;;
21245;SDS011;10781;50.928;4.440;2023-03-31T00:39:53;8.38;;;2.15;;
21245;SDS011;10781;50.928;4.440;2023-03-31T00:42:20;12.25;;;2.35;;
21245;SDS011;10781;50.928;4.440;2023-03-31T00:45:31;9.48;;;2.50;;
21245;SDS011;10781;50.928;4.440;2023-03-31T00:47:57;11.60;;;2.22;;
21245;SDS011;10781;50.928;4.440;2023-03-31T00:50:40;12.63;;;2.30;;
21245;SDS011;10781;50.928;4.440;2023-03-31T00:53:19;12.65;;;2.20;;
21245;SDS011;10781;50.928;4.440;2023-03-31T00:55:53;9.13;;;2.20;;
21245;SDS011;10781;50.928;4.440;2023-03-31T00:58:22;11.15;;;2.55;;
21245;SDS011;10781;50.928;4.440;2023-03-31T01:00:52;12.18;;;2.70;;
21245;SDS011;10781;50.928;4.440;2023-03-31T01:03:20;11.85;;;2.65;;
21245;SDS011;10781;50.928;4.440;2023-03-31T01:05:48;15.45;;;3.20;;
21245;SDS011;10781;50.928;4.440;2023-03-31T01:08:18;15.82;;;2.85;;
21245;SDS011;10781;50.928;4.440;2023-03-31T01:10:49;13.75;;;2.88;;
21245;SDS011;10781;50.928;4.440;2023-03-31T01:13:27;13.48;;;2.85;;
21245;SDS011;10781;50.928;4.440;2023-03-31T01:15:54;13.13;;;2.60;;
21245;SDS011;10781;50.928;4.440;2023-03-31T01:18:20;12.25;;;3.28;;
21245;SDS011;10781;50.928;4.440;2023-03-31T01:23:54;13.23;;;2.80;;
21245;SDS011;10781;50.928;4.440;2023-03-31T01:26:39;14.07;;;2.60;;
21245;SDS011;10781;50.928;4.440;2023-03-31T01:32:18;11.20;;;2.53;;
21245;SDS011;10781;50.928;4.440;2023-03-31T01:43:48;11.40;;;2.30;;
21245;SDS011;10781;50.928;4.440;2023-03-31T01:46:30;10.57;;;2.28;;
21245;SDS011;10781;50.928;4.440;2023-03-31T01:52:06;8.95;;;2.22;;
21245;SDS011;10781;50.928;4.440;2023-03-31T01:54:55;10.70;;;2.22;;
21245;SDS011;10781;50.928;4.440;2023-03-31T01:57:32;13.52;;;2.33;;
21245;SDS011;10781;50.928;4.440;2023-03-31T02:00:02;7.20;;;1.90;;
21245;SDS011;10781;50.928;4.440;2023-03-31T02:02:30;7.55;;;1.50;;
21245;SDS011;10781;50.928;4.440;2023-03-31T02:05:02;8.18;;;2.10;;
21245;SDS011;10781;50.928;4.440;2023-03-31T02:07:36;14.65;;;4.10;;
21245;SDS011;10781;50.928;4.440;2023-03-31T02:10:24;10.30;;;2.25;;
21245;SDS011;10781;50.928;4.440;2023-03-31T02:12:53;10.82;;;2.47;;
21245;SDS011;10781;50.928;4.440;2023-03-31T02:15:22;6.88;;;2.63;;
21245;SDS011;10781;50.928;4.440;2023-03-31T02:17:52;8.00;;;1.45;;
21245;SDS011;10781;50.928;4.440;2023-03-31T02:20:20;10.85;;;2.05;;
21245;SDS011;10781;50.928;4.440;2023-03-31T02:22:48;6.90;;;1.65;;
21245;SDS011;10781;50.928;4.440;2023-03-31T02:25:17;7.00;;;1.80;;
21245;SDS011;10781;50.928;4.440;2023-03-31T02:27:48;8.00;;;1.38;;
21245;SDS011;10781;50.928;4.440;2023-03-31T02:30:27;5.85;;;1.70;;
21245;SDS011;10781;50.928;4.440;2023-03-31T02:32:59;9.00;;;1.60;;
21245;SDS011;10781;50.928;4.440;2023-03-31T02:35:25;7.53;;;1.88;;
21245;SDS011;10781;50.928;4.440;2023-03-31T02:37:50;7.00;;;1.33;;
21245;SDS011;10781;50.928;4.440;2023-03-31T02:40:19;8.52;;;1.52;;
21245;SDS011;10781;50.928;4.440;2023-03-31T02:42:46;8.80;;;1.80;;
21245;SDS011;10781;50.928;4.440;2023-03-31T02:48:14;6.32;;;1.50;;
21245;SDS011;10781;50.928;4.440;2023-03-31T03:04:47;7.38;;;1.45;;
21245;SDS011;10781;50.928;4.440;2023-03-31T03:07:37;7.55;;;2.05;;
21245;SDS011;10781;50.928;4.440;2023-03-31T03:10:36;6.80;;;1.58;;
21245;SDS011;10781;50.928;4.440;2023-03-31T03:13:28;5.55;;;1.50;;
21245;SDS011;10781;50.928;4.440;2023-03-31T03:16:19;6.70;;;1.70;;
21245;SDS011;10781;50.928;4.440;2023-03-31T03:18:55;7.57;;;1.55;;
21245;SDS011;10781;50.928;4.440;2023-03-31T03:21:29;10.85;;;1.95;;
21245;SDS011;10781;50.928;4.440;2023-03-31T03:23:55;8.77;;;1.60;;
21245;SDS011;10781;50.928;4.440;2023-03-31T03:26:21;7.03;;;2.13;;
21245;SDS011;10781;50.928;4.440;2023-03-31T03:28:48;9.38;;;1.80;;
21245;SDS011;10781;50.928;4.440;2023-03-31T03:31:15;6.68;;;1.90;;
21245;SDS011;10781;50.928;4.440;2023-03-31T03:33:41;7.20;;;2.22;;
21245;SDS011;10781;50.928;4.440;2023-03-31T03:36:07;12.73;;;1.83;;
21245;SDS011;10781;50.928;4.440;2023-03-31T03:38:33;8.48;;;1.90;;
21245;SDS011;10781;50.928;4.440;2023-03-31T03:40:58;9.93;;;1.85;;
21245;SDS011;10781;50.928;4.440;2023-03-31T03:43:24;9.00;;;1.90;;
21245;SDS011;10781;50.928;4.440;2023-03-31T03:45:50;10.60;;;2.00;;
21245;SDS011;10781;50.928;4.440;2023-03-31T03:48:16;11.20;;;1.92;;
21245;SDS011;10781;50.928;4.440;2023-03-31T03:50:44;6.75;;;1.80;;
21245;SDS011;10781;50.928;4.440;2023-03-31T03:53:10;9.82;;;2.10;;
21245;SDS011;10781;50.928;4.440;2023-03-31T03:55:36;9.23;;;1.90;;
21245;SDS011;10781;50.928;4.440;2023-03-31T03:58:02;8.10;;;1.63;;
21245;SDS011;10781;50.928;4.440;2023-03-31T04:00:27;9.50;;;1.95;;
21245;SDS011;10781;50.928;4.440;2023-03-31T04:02:53;9.38;;;1.67;;
21245;SDS011;10781;50.928;4.440;2023-03-31T04:05:18;4.88;;;1.40;;
21245;SDS011;10781;50.928;4.440;2023-03-31T04:07:44;2.80;;;0.90;;
21245;SDS011;10781;50.928;4.440;2023-03-31T04:10:10;2.45;;;0.80;;
21245;SDS011;10781;50.928;4.440;2023-03-31T04:12:35;2.00;;;0.60;;
21245;SDS011;10781;50.928;4.440;2023-03-31T04:15:01;1.77;;;0.60;;
21245;SDS011;10781;50.928;4.440;2023-03-31T04:17:27;3.75;;;0.50;;
21245;SDS011;10781;50.928;4.440;2023-03-31T04:20:01;1.13;;;0.60;;
21245;SDS011;10781;50.928;4.440;2023-03-31T04:22:30;1.67;;;0.50;;
21245;SDS011;10781;50.928;4.440;2023-03-31T04:25:09;1.15;;;0.57;;
21245;SDS011;10781;50.928;4.440;2023-03-31T04:27:41;2.92;;;0.60;;
21245;SDS011;10781;50.928;4.440;2023-03-31T04:30:18;1.15;;;0.47;;
21245;SDS011;10781;50.928;4.440;2023-03-31T04:32:51;1.10;;;0.47;;
21245;SDS011;10781;50.928;4.440;2023-03-31T04:35:22;1.40;;;0.60;;
21245;SDS011;10781;50.928;4.440;2023-03-31T04:37:50;2.08;;;0.80;;
21245;SDS011;10781;50.928;4.440;2023-03-31T04:40:22;2.33;;;0.80;;
21245;SDS011;10781;50.928;4.440;2023-03-31T04:42:49;3.50;;;0.90;;
21245;SDS011;10781;50.928;4.440;2023-03-31T04:45:15;4.70;;;0.80;;
21245;SDS011;10781;50.928;4.440;2023-03-31T04:47:41;5.57;;;1.25;;
21245;SDS011;10781;50.928;4.440;2023-03-31T04:50:07;6.90;;;1.35;;
21245;SDS011;10781;50.928;4.440;2023-03-31T04:52:35;5.45;;;1.48;;
21245;SDS011;10781;50.928;4.440;2023-03-31T04:55:01;7.13;;;1.60;;
21245;SDS011;10781;50.928;4.440;2023-03-31T04:57:27;7.45;;;1.60;;
21245;SDS011;10781;50.928;4.440;2023-03-31T04:59:53;10.65;;;2.08;;
21245;SDS011;10781;50.928;4.440;2023-03-31T05:02:19;7.88;;;1.90;;
21245;SDS011;10781;50.928;4.440;2023-03-31T05:04:50;8.05;;;2.30;;
21245;SDS011;10781;50.928;4.440;2023-03-31T05:07:16;10.25;;;2.45;;
21245;SDS011;10781;50.928;4.440;2023-03-31T05:09:43;7.35;;;2.50;;
21245;SDS011;10781;50.928;4.440;2023-03-31T05:12:08;7.05;;;2.10;;
21245;SDS011;10781;50.928;4.440;2023-03-31T05:14:34;9.73;;;2.50;;
21245;SDS011;10781;50.928;4.440;2023-03-31T05:17:00;10.73;;;2.53;;
21245;SDS011;10781;50.928;4.440;2023-03-31T05:19:26;11.38;;;2.78;;
21245;SDS011;10781;50.928;4.440;2023-03-31T05:21:52;12.90;;;2.65;;
21245;SDS011;10781;50.928;4.440;2023-03-31T05:24:18;10.45;;;2.58;;
21245;SDS011;10781;50.928;4.440;2023-03-31T05:26:43;10.48;;;2.70;;
21245;SDS011;10781;50.928;4.440;2023-03-31T05:29:16;12.45;;;2.33;;
21245;SDS011;10781;50.928;4.440;2023-03-31T05:31:43;11.68;;;3.00;;
21245;SDS011;10781;50.928;4.440;2023-03-31T05:34:09;10.20;;;2.40;;
21245;SDS011;10781;50.928;4.440;2023-03-31T05:36:35;13.15;;;2.70;;
21245;SDS011;10781;50.928;4.440;2023-03-31T05:39:01;14.60;;;2.92;;
21245;SDS011;10781;50.928;4.440;2023-03-31T05:41:28;10.35;;;2.60;;
21245;SDS011;10781;50.928;4.440;2023-03-31T05:43:53;12.75;;;2.67;;
21245;SDS011;10781;50.928;4.440;2023-03-31T05:46:19;12.60;;;2.30;;
21245;SDS011;10781;50.928;4.440;2023-03-31T05:48:45;11.32;;;2.65;;
21245;SDS011;10781;50.928;4.440;2023-03-31T05:51:10;11.38;;;2.80;;
21245;SDS011;10781;50.928;4.440;2023-03-31T05:53:36;12.15;;;3.03;;
21245;SDS011;10781;50.928;4.440;2023-03-31T05:56:02;14.45;;;2.95;;
21245;SDS011;10781;50.928;4.440;2023-03-31T05:58:32;11.90;;;2.80;;
21245;SDS011;10781;50.928;4.440;2023-03-31T06:01:13;12.95;;;2.55;;
21245;SDS011;10781;50.928;4.440;2023-03-31T06:03:47;14.35;;;3.10;;
21245;SDS011;10781;50.928;4.440;2023-03-31T06:06:13;11.23;;;2.72;;
21245;SDS011;10781;50.928;4.440;2023-03-31T06:08:41;13.18;;;2.85;;
21245;SDS011;10781;50.928;4.440;2023-03-31T06:11:09;10.88;;;2.80;;
21245;SDS011;10781;50.928;4.440;2023-03-31T06:13:37;11.75;;;2.97;;
21245;SDS011;10781;50.928;4.440;2023-03-31T06:16:03;17.80;;;3.58;;
21245;SDS011;10781;50.928;4.440;2023-03-31T06:18:31;13.73;;;2.75;;
21245;SDS011;10781;50.928;4.440;2023-03-31T06:20:58;12.75;;;2.67;;
21245;SDS011;10781;50.928;4.440;2023-03-31T06:23:24;10.15;;;2.78;;
21245;SDS011;10781;50.928;4.440;2023-03-31T06:25:51;15.38;;;3.30;;
21245;SDS011;10781;50.928;4.440;2023-03-31T06:28:17;13.85;;;3.20;;
21245;SDS011;10781;50.928;4.440;2023-03-31T06:30:44;12.35;;;2.97;;
21245;SDS011;10781;50.928;4.440;2023-03-31T06:33:10;9.93;;;3.00;;
21245;SDS011;10781;50.928;4.440;2023-03-31T06:35:37;16.08;;;3.30;;
21245;SDS011;10781;50.928;4.440;2023-03-31T06:38:04;13.02;;;3.03;;
21245;SDS011;10781;50.928;4.440;2023-03-31T06:40:30;15.18;;;2.85;;
21245;SDS011;10781;50.928;4.440;2023-03-31T06:42:56;10.05;;;3.05;;
21245;SDS011;10781;50.928;4.440;2023-03-31T06:45:22;17.13;;;3.42;;
21245;SDS011;10781;50.928;4.440;2023-03-31T06:47:47;14.20;;;3.15;;
21245;SDS011;10781;50.928;4.440;2023-03-31T06:50:13;12.40;;;3.47;;
21245;SDS011;10781;50.928;4.440;2023-03-31T06:52:39;13.27;;;3.20;;
21245;SDS011;10781;50.928;4.440;2023-03-31T06:55:05;12.18;;;2.88;;
21245;SDS011;10781;50.928;4.440;2023-03-31T06:57:32;11.93;;;3.08;;
21245;SDS011;10781;50.928;4.440;2023-03-31T06:59:58;14.25;;;3.42;;
21245;SDS011;10781;50.928;4.440;2023-03-31T07:02:24;14.57;;;3.13;;
21245;SDS011;10781;50.928;4.440;2023-03-31T07:04:50;12.40;;;3.10;;
21245;SDS011;10781;50.928;4.440;2023-03-31T07:07:15;13.25;;;3.15;;
21245;SDS011;10781;50.928;4.440;2023-03-31T07:09:41;17.25;;;2.97;;
21245;SDS011;10781;50.928;4.440;2023-03-31T07:12:07;14.13;;;3.03;;
21245;SDS011;10781;50.928;4.440;2023-03-31T07:14:34;18.58;;;3.83;;
21245;SDS011;10781;50.928;4.440;2023-03-31T07:17:00;13.55;;;2.83;;
21245;SDS011;10781;50.928;4.440;2023-03-31T07:19:25;12.75;;;3.13;;
21245;SDS011;10781;50.928;4.440;2023-03-31T07:21:51;12.18;;;2.78;;
21245;SDS011;10781;50.928;4.440;2023-03-31T07:24:17;11.27;;;3.30;;
21245;SDS011;10781;50.928;4.440;2023-03-31T07:26:42;13.93;;;3.42;;
21245;SDS011;10781;50.928;4.440;2023-03-31T07:29:08;9.82;;;2.63;;
21245;SDS011;10781;50.928;4.440;2023-03-31T07:31:34;12.63;;;3.03;;
21245;SDS011;10781;50.928;4.440;2023-03-31T07:34:00;10.75;;;2.75;;
21245;SDS011;10781;50.928;4.440;2023-03-31T07:36:27;10.68;;;3.30;;
21245;SDS011;10781;50.928;4.440;2023-03-31T07:38:52;17.55;;;3.30;;
21245;SDS011;10781;50.928;4.440;2023-03-31T07:41:19;13.40;;;2.75;;
21245;SDS011;10781;50.928;4.440;2023-03-31T07:43:46;13.60;;;3.30;;
21245;SDS011;10781;50.928;4.440;2023-03-31T07:46:13;18.63;;;3.65;;
21245;SDS011;10781;50.928;4.440;2023-03-31T07:48:43;12.77;;;3.05;;
21245;SDS011;10781;50.928;4.440;2023-03-31T07:51:10;15.10;;;3.65;;
21245;SDS011;10781;50.928;4.440;2023-03-31T07:53:37;15.60;;;3.50;;
21245;SDS011;10781;50.928;4.440;2023-03-31T07:56:03;16.75;;;3.55;;
21245;SDS011;10781;50.928;4.440;2023-03-31T07:58:29;20.20;;;3.72;;
21245;SDS011;10781;50.928;4.440;2023-03-31T08:00:55;23.60;;;3.63;;
21245;SDS011;10781;50.928;4.440;2023-03-31T08:03:20;14.50;;;3.40;;
21245;SDS011;10781;50.928;4.440;2023-03-31T08:05:46;16.02;;;3.08;;
21245;SDS011;10781;50.928;4.440;2023-03-31T08:08:12;19.98;;;4.00;;
21245;SDS011;10781;50.928;4.440;2023-03-31T08:10:37;15.88;;;4.20;;
21245;SDS011;10781;50.928;4.440;2023-03-31T08:13:03;20.75;;;3.70;;
21245;SDS011;10781;50.928;4.440;2023-03-31T08:15:29;19.20;;;3.88;;
21245;SDS011;10781;50.928;4.440;2023-03-31T08:17:54;14.65;;;3.15;;
21245;SDS011;10781;50.928;4.440;2023-03-31T08:20:20;15.27;;;3.22;;
21245;SDS011;10781;50.928;4.440;2023-03-31T08:22:46;16.55;;;3.17;;
21245;SDS011;10781;50.928;4.440;2023-03-31T08:25:11;19.08;;;3.47;;
21245;SDS011;10781;50.928;4.440;2023-03-31T08:27:38;14.25;;;3.33;;
21245;SDS011;10781;50.928;4.440;2023-03-31T08:30:05;15.20;;;3.58;;
21245;SDS011;10781;50.928;4.440;2023-03-31T08:32:32;16.40;;;2.80;;
21245;SDS011;10781;50.928;4.440;2023-03-31T08:34:59;16.98;;;3.08;;
21245;SDS011;10781;50.928;4.440;2023-03-31T08:37:25;13.25;;;3.55;;
21245;SDS011;10781;50.928;4.440;2023-03-31T08:39:52;10.32;;;2.63;;
21245;SDS011;10781;50.928;4.440;2023-03-31T08:42:20;13.35;;;2.92;;
21245;SDS011;10781;50.928;4.440;2023-03-31T08:48:23;16.17;;;3.25;;
21245;SDS011;10781;50.928;4.440;2023-03-31T08:51:13;12.43;;;2.90;;
21245;SDS011;10781;50.928;4.440;2023-03-31T08:54:15;11.48;;;2.30;;
21245;SDS011;10781;50.928;4.440;2023-03-31T08:56:54;17.70;;;2.80;;
21245;SDS011;10781;50.928;4.440;2023-03-31T08:59:30;13.60;;;2.80;;
21245;SDS011;10781;50.928;4.440;2023-03-31T09:04:42;12.63;;;3.00;;
21245;SDS011;10781;50.928;4.440;2023-03-31T09:07:18;11.85;;;2.97;;
21245;SDS011;10781;50.928;4.440;2023-03-31T09:10:22;12.77;;;3.42;;
21245;SDS011;10781;50.928;4.440;2023-03-31T09:18:32;16.05;;;3.33;;
21245;SDS011;10781;50.928;4.440;2023-03-31T09:21:11;11.18;;;3.00;;
21245;SDS011;10781;50.928;4.440;2023-03-31T09:23:48;13.35;;;2.83;;
21245;SDS011;10781;50.928;4.440;2023-03-31T09:26:33;16.45;;;2.97;;
21245;SDS011;10781;50.928;4.440;2023-03-31T09:29:00;12.75;;;2.90;;
21245;SDS011;10781;50.928;4.440;2023-03-31T09:31:28;13.95;;;3.10;;
21245;SDS011;10781;50.928;4.440;2023-03-31T09:33:56;13.25;;;2.85;;
21245;SDS011;10781;50.928;4.440;2023-03-31T09:36:25;11.13;;;2.70;;
21245;SDS011;10781;50.928;4.440;2023-03-31T09:38:51;12.65;;;2.83;;
21245;SDS011;10781;50.928;4.440;2023-03-31T09:41:17;14.77;;;2.63;;
21245;SDS011;10781;50.928;4.440;2023-03-31T09:43:43;12.32;;;2.58;;
21245;SDS011;10781;50.928;4.440;2023-03-31T09:49:17;16.50;;;3.13;;
21245;SDS011;10781;50.928;4.440;2023-03-31T09:51:44;15.75;;;3.60;;
21245;SDS011;10781;50.928;4.440;2023-03-31T09:54:14;14.40;;;3.20;;
21245;SDS011;10781;50.928;4.440;2023-03-31T09:56:47;18.08;;;4.07;;
21245;SDS011;10781;50.928;4.440;2023-03-31T09:59:17;17.17;;;3.40;;
21245;SDS011;10781;50.928;4.440;2023-03-31T10:01:46;19.42;;;3.60;;
21245;SDS011;10781;50.928;4.440;2023-03-31T10:04:33;15.63;;;3.15;;
21245;SDS011;10781;50.928;4.440;2023-03-31T10:07:00;17.35;;;3.47;;
21245;SDS011;10781;50.928;4.440;2023-03-31T10:09:31;17.02;;;3.20;;
21245;SDS011;10781;50.928;4.440;2023-03-31T10:12:02;16.58;;;3.10;;
21245;SDS011;10781;50.928;4.440;2023-03-31T10:14:45;15.93;;;3.50;;
21245;SDS011;10781;50.928;4.440;2023-03-31T10:17:22;19.10;;;3.25;;
21245;SDS011;10781;50.928;4.440;2023-03-31T10:19:56;13.40;;;3.00;;
21245;SDS011;10781;50.928;4.440;2023-03-31T10:22:30;15.75;;;3.45;;
21245;SDS011;10781;50.928;4.440;2023-03-31T10:25:16;20.58;;;3.97;;
21245;SDS011;10781;50.928;4.440;2023-03-31T10:27:46;17.50;;;3.30;;
21245;SDS011;10781;50.928;4.440;2023-03-31T10:30:15;13.88;;;3.05;;
21245;SDS011;10781;50.928;4.440;2023-03-31T10:32:46;16.48;;;4.13;;
21245;SDS011;10781;50.928;4.440;2023-03-31T10:35:22;17.80;;;3.60;;
21245;SDS011;10781;50.928;4.440;2023-03-31T10:37:50;12.77;;;3.00;;
21245;SDS011;10781;50.928;4.440;2023-03-31T10:40:20;15.65;;;3.75;;
21245;SDS011;10781;50.928;4.440;2023-03-31T10:42:49;12.48;;;2.90;;
21245;SDS011;10781;50.928;4.440;2023-03-31T10:45:28;10.07;;;2.85;;
21245;SDS011;10781;50.928;4.440;2023-03-31T10:47:56;14.00;;;3.00;;
21245;SDS011;10781;50.928;4.440;2023-03-31T10:50:28;18.02;;;3.10;;
21245;SDS011;10781;50.928;4.440;2023-03-31T10:53:08;11.27;;;2.90;;
21245;SDS011;10781;50.928;4.440;2023-03-31T10:55:46;11.68;;;2.55;;
21245;SDS011;10781;50.928;4.440;2023-03-31T11:01:27;17.75;;;3.72;;
21245;SDS011;10781;50.928;4.440;2023-03-31T11:04:00;12.38;;;2.88;;
21245;SDS011;10781;50.928;4.440;2023-03-31T11:11:42;12.15;;;2.78;;
21245;SDS011;10781;50.928;4.440;2023-03-31T11:30:34;11.00;;;3.15;;
21245;SDS011;10781;50.928;4.440;2023-03-31T11:38:48;8.95;;;2.83;;
21245;SDS011;10781;50.928;4.440;2023-03-31T11:41:35;12.00;;;2.58;;
21245;SDS011;10781;50.928;4.440;2023-03-31T11:44:05;11.73;;;2.38;;
21245;SDS011;10781;50.928;4.440;2023-03-31T11:46:46;13.02;;;2.38;;
21245;SDS011;10781;50.928;4.440;2023-03-31T11:49:30;12.85;;;2.80;;
21245;SDS011;10781;50.928;4.440;2023-03-31T11:52:19;9.75;;;2.17;;
21245;SDS011;10781;50.928;4.440;2023-03-31T11:58:05;8.45;;;2.22;;
21245;SDS011;10781;50.928;4.440;2023-03-31T12:00:38;8.57;;;2.55;;
21245;SDS011;10781;50.928;4.440;2023-03-31T12:06:08;11.23;;;3.15;;
21245;SDS011;10781;50.928;4.440;2023-03-31T12:11:28;9.57;;;2.63;;
21245;SDS011;10781;50.928;4.440;2023-03-31T12:16:44;14.77;;;2.83;;
21245;SDS011;10781;50.928;4.440;2023-03-31T12:19:25;10.02;;;2.38;;
21245;SDS011;10781;50.928;4.440;2023-03-31T12:22:18;8.38;;;2.20;;
21245;SDS011;10781;50.928;4.440;2023-03-31T12:24:50;9.35;;;2.65;;
21245;SDS011;10781;50.928;4.440;2023-03-31T12:27:18;13.05;;;2.53;;
21245;SDS011;10781;50.928;4.440;2023-03-31T12:30:00;9.63;;;2.22;;
21245;SDS011;10781;50.928;4.440;2023-03-31T12:32:35;9.68;;;2.20;;
21245;SDS011;10781;50.928;4.440;2023-03-31T12:44:01;6.88;;;2.17;;
21245;SDS011;10781;50.928;4.440;2023-03-31T12:49:14;8.32;;;1.75;;
21245;SDS011;10781;50.928;4.440;2023-03-31T12:54:45;7.68;;;1.40;;
21245;SDS011;10781;50.928;4.440;2023-03-31T12:57:34;4.40;;;1.75;;
21245;SDS011;10781;50.928;4.440;2023-03-31T13:02:38;6.68;;;1.15;;
21245;SDS011;10781;50.928;4.440;2023-03-31T13:08:02;5.43;;;1.25;;
21245;SDS011;10781;50.928;4.440;2023-03-31T13:10:55;4.47;;;1.10;;
21245;SDS011;10781;50.928;4.440;2023-03-31T13:13:22;4.80;;;0.90;;
21245;SDS011;10781;50.928;4.440;2023-03-31T13:15:52;5.78;;;1.00;;
21245;SDS011;10781;50.928;4.440;2023-03-31T13:18:20;4.28;;;0.95;;
21245;SDS011;10781;50.928;4.440;2023-03-31T13:20:56;3.85;;;1.20;;
21245;SDS011;10781;50.928;4.440;2023-03-31T13:23:24;2.75;;;0.73;;
21245;SDS011;10781;50.928;4.440;2023-03-31T13:25:51;2.50;;;0.40;;
21245;SDS011;10781;50.928;4.440;2023-03-31T13:33:42;2.40;;;0.60;;
21245;SDS011;10781;50.928;4.440;2023-03-31T13:47:30;2.03;;;0.50;;
21245;SDS011;10781;50.928;4.440;2023-03-31T13:50:16;1.33;;;0.40;;
21245;SDS011;10781;50.928;4.440;2023-03-31T13:58:13;1.67;;;0.50;;
21245;SDS011;10781;50.928;4.440;2023-03-31T14:03:32;2.25;;;0.40;;
21245;SDS011;10781;50.928;4.440;2023-03-31T14:06:35;2.65;;;0.85;;
21245;SDS011;10781;50.928;4.440;2023-03-31T14:09:07;3.08;;;0.50;;
21245;SDS011;10781;50.928;4.440;2023-03-31T14:11:35;1.73;;;0.57;;
21245;SDS011;10781;50.928;4.440;2023-03-31T14:14:02;2.47;;;0.50;;
21245;SDS011;10781;50.928;4.440;2023-03-31T14:16:52;2.47;;;0.57;;
21245;SDS011;10781;50.928;4.440;2023-03-31T14:25:06;1.50;;;0.50;;
21245;SDS011;10781;50.928;4.440;2023-03-31T14:30:38;2.03;;;0.40;;
21245;SDS011;10781;50.928;4.440;2023-03-31T14:33:23;1.98;;;0.55;;
21245;SDS011;10781;50.928;4.440;2023-03-31T14:38:32;1.10;;;0.40;;
21245;SDS011;10781;50.928;4.440;2023-03-31T14:40:58;2.40;;;0.60;;
21245;SDS011;10781;50.928;4.440;2023-03-31T14:43:28;3.28;;;0.70;;
21245;SDS011;10781;50.928;4.440;2023-03-31T14:45:58;2.15;;;0.70;;
21245;SDS011;10781;50.928;4.440;2023-03-31T14:48:25;3.00;;;0.77;;
21245;SDS011;10781;50.928;4.440;2023-03-31T14:50:55;1.08;;;0.50;;
21245;SDS011;10781;50.928;4.440;2023-03-31T14:53:23;1.23;;;0.50;;
21245;SDS011;10781;50.928;4.440;2023-03-31T14:55:50;1.77;;;0.55;;
21245;SDS011;10781;50.928;4.440;2023-03-31T14:58:31;1.10;;;0.50;;
21245;SDS011;10781;50.928;4.440;2023-03-31T15:01:01;1.38;;;0.50;;
21245;SDS011;10781;50.928;4.440;2023-03-31T15:03:30;1.77;;;0.40;;
21245;SDS011;10781;50.928;4.440;2023-03-31T15:05:57;0.80;;;0.40;;
21245;SDS011;10781;50.928;4.440;2023-03-31T15:08:25;1.92;;;0.47;;
21245;SDS011;10781;50.928;4.440;2023-03-31T15:10:55;1.25;;;0.60;;
21245;SDS011;10781;50.928;4.440;2023-03-31T15:13:26;4.68;;;0.70;;
21245;SDS011;10781;50.928;4.440;2023-03-31T15:15:57;1.67;;;0.60;;
21245;SDS011;10781;50.928;4.440;2023-03-31T15:18:24;1.50;;;0.50;;
21245;SDS011;10781;50.928;4.440;2023-03-31T15:20:51;1.52;;;0.40;;
21245;SDS011;10781;50.928;4.440;2023-03-31T15:23:24;2.22;;;0.60;;
21245;SDS011;10781;50.928;4.440;2023-03-31T15:26:13;1.13;;;0.50;;
21245;SDS011;10781;50.928;4.440;2023-03-31T15:28:50;2.10;;;0.82;;
21245;SDS011;10781;50.928;4.440;2023-03-31T15:31:19;3.55;;;0.70;;
21245;SDS011;10781;50.928;4.440;2023-03-31T15:33:45;2.75;;;0.85;;
21245;SDS011;10781;50.928;4.440;2023-03-31T15:36:11;2.05;;;0.70;;
21245;SDS011;10781;50.928;4.440;2023-03-31T15:38:38;2.05;;;0.70;;
21245;SDS011;10781;50.928;4.440;2023-03-31T15:41:10;2.28;;;0.80;;
21245;SDS011;10781;50.928;4.440;2023-03-31T15:46:10;3.55;;;0.90;;
21245;SDS011;10781;50.928;4.440;2023-03-31T15:48:50;1.08;;;0.47;;
21245;SDS011;10781;50.928;4.440;2023-03-31T15:51:24;5.53;;;0.80;;
21245;SDS011;10781;50.928;4.440;2023-03-31T15:53:55;2.35;;;0.60;;
21245;SDS011;10781;50.928;4.440;2023-03-31T15:57:03;3.03;;;0.80;;
21245;SDS011;10781;50.928;4.440;2023-03-31T15:59:22;4.82;;;0.80;;
21245;SDS011;10781;50.928;4.440;2023-03-31T16:01:50;3.17;;;0.70;;
21245;SDS011;10781;50.928;4.440;2023-03-31T16:04:16;2.28;;;0.70;;
21245;SDS011;10781;50.928;4.440;2023-03-31T16:06:46;2.33;;;0.75;;
21245;SDS011;10781;50.928;4.440;2023-03-31T16:09:23;5.18;;;0.95;;
21245;SDS011;10781;50.928;4.440;2023-03-31T16:17:49;5.10;;;1.20;;
21245;SDS011;10781;50.928;4.440;2023-03-31T16:20:22;3.88;;;1.00;;
21245;SDS011;10781;50.928;4.440;2023-03-31T16:22:56;5.18;;;1.40;;
21245;SDS011;10781;50.928;4.440;2023-03-31T16:25:23;4.75;;;1.23;;
21245;SDS011;10781;50.928;4.440;2023-03-31T16:27:55;10.23;;;4.38;;
21245;SDS011;10781;50.928;4.440;2023-03-31T16:30:33;9.73;;;3.33;;
21245;SDS011;10781;50.928;4.440;2023-03-31T16:35:32;5.38;;;1.58;;
21245;SDS011;10781;50.928;4.440;2023-03-31T16:38:00;8.45;;;1.45;;
21245;SDS011;10781;50.928;4.440;2023-03-31T16:40:28;7.88;;;1.48;;
21245;SDS011;10781;50.928;4.440;2023-03-31T16:45:37;7.53;;;1.83;;
21245;SDS011;10781;50.928;4.440;2023-03-31T16:48:03;6.60;;;1.70;;
21245;SDS011;10781;50.928;4.440;2023-03-31T16:50:29;9.95;;;2.10;;
21245;SDS011;10781;50.928;4.440;2023-03-31T16:52:56;8.57;;;1.80;;
21245;SDS011;10781;50.928;4.440;2023-03-31T16:55:22;7.07;;;1.90;;
21245;SDS011;10781;50.928;4.440;2023-03-31T16:57:48;6.97;;;1.90;;
21245;SDS011;10781;50.928;4.440;2023-03-31T17:00:14;9.38;;;1.90;;
21245;SDS011;10781;50.928;4.440;2023-03-31T17:02:40;9.70;;;1.65;;
21245;SDS011;10781;50.928;4.440;2023-03-31T17:05:06;11.15;;;1.80;;
21245;SDS011;10781;50.928;4.440;2023-03-31T17:07:32;7.50;;;1.80;;
21245;SDS011;10781;50.928;4.440;2023-03-31T17:09:58;7.30;;;1.63;;
21245;SDS011;10781;50.928;4.440;2023-03-31T17:12:24;6.00;;;1.70;;
21245;SDS011;10781;50.928;4.440;2023-03-31T17:14:50;5.47;;;2.03;;
21245;SDS011;10781;50.928;4.440;2023-03-31T17:17:15;4.35;;;1.58;;
21245;SDS011;10781;50.928;4.440;2023-03-31T17:19:41;9.10;;;1.73;;
21245;SDS011;10781;50.928;4.440;2023-03-31T17:22:07;7.57;;;1.55;;
21245;SDS011;10781;50.928;4.440;2023-03-31T17:24:32;9.23;;;2.00;;
21245;SDS011;10781;50.928;4.440;2023-03-31T17:26:58;6.72;;;1.58;;
21245;SDS011;10781;50.928;4.440;2023-03-31T17:29:24;9.25;;;1.88;;
21245;SDS011;10781;50.928;4.440;2023-03-31T17:31:50;8.45;;;1.95;;
21245;SDS011;10781;50.928;4.440;2023-03-31T17:34:16;6.55;;;1.60;;
21245;SDS011;10781;50.928;4.440;2023-03-31T17:36:42;5.72;;;2.05;;
21245;SDS011;10781;50.928;4.440;2023-03-31T17:39:08;9.00;;;2.00;;
21245;SDS011;10781;50.928;4.440;2023-03-31T17:41:35;9.45;;;1.70;;